Brevard, NC

3:11 PM EST on December 28, 2014 (GMT -0500)
Barclay Road Weather | Change Station
CLOSE
Current Station
Personal Weather Station
Location: Brevard, NC
Elevation: 2129 ft
Nearby Weather Stations

Elev 2129 ft 35.20 °N, 82.74 °W | Updated 1 second ago

Overcast
Overcast
61.4 °F
Feels Like 61.4 °F
N
0.0
Wind Variable Wind from SE
Gusts 6.0 mph

Today
High -- | Low -- °F
--% Chance of Precip.
Yesterday
High -- | Low -- °F
Precip. -- in
7:38 AM 5:26 PM
Waxing Crescent, 51% visible
Pressure 30.00 in
Visibility 10.0 miles
Clouds Mostly Cloudy 4600 ft
Overcast 5500 ft
Dew Point 56 °F
Humidity 84%
Rainfall 0.07 in
Snow Depth Not available.
UV 1 out of 12
Pollen .30 out of 12
Air Quality Not available.
Flu Activity Not available.
METAR KAVL 281954Z 35011KT 10SM BKN046 OVC055 14/08 A3003 RMK AO2 SLP157 T01440083

More Conditions Fewer Conditions

Pressure 30.00 in
Visibility 10.0 miles
Clouds Mostly Cloudy 4600 ft
Overcast 5500 ft
Dew Point 56 °F
Humidity 84%
Rainfall 0.07 in
Snow Depth Not available.
UV 1 out of 12
Pollen .30 out of 12
Air Quality Not available.
Flu Activity Not available.
METAR KAVL 281954Z 35011KT 10SM BKN046 OVC055 14/08 A3003 RMK AO2 SLP157 T01440083

More Conditions Fewer Conditions

10-Day Weather Forecast

Almanac

Astronomy

Dec. 28, 2014 Rise Set
Actual Time
Civil Twilight
Nautical Twilight
Astronomical Twilight
Moon
Length of Visible Light
Length of Day
Tomorrow will be .
, % of the Moon is Illuminated

Today's Extremes

State Highs State Lows

Community

WunderPhotos

Upload Photos

1,781,410 photos uploaded!

WunderBlogs® & News

Nearby

Air Quality

  Air Quality AQ Index Pollutant
Not available.

Snow Depth

Station Depth Elevation

Earthquake Activity

City Distance Mag. Time & Date
Minimum magnitude displayed is 2.5.

Coastal Water Temperatures

Place Temperature

Nearby Weather Stations